sensor_id;sensor_type;location;lat;lon;timestamp;P1;durP1;ratioP1;P2;durP2;ratioP2
21233;SDS011;10774;42.178;26.578;2024-03-08T00:00:26;30.75;;;20.85;;
21233;SDS011;10774;42.178;26.578;2024-03-08T00:02:52;31.63;;;21.10;;
21233;SDS011;10774;42.178;26.578;2024-03-08T00:05:17;36.40;;;20.55;;
21233;SDS011;10774;42.178;26.578;2024-03-08T00:07:43;35.42;;;22.02;;
21233;SDS011;10774;42.178;26.578;2024-03-08T00:10:09;27.70;;;19.75;;
21233;SDS011;10774;42.178;26.578;2024-03-08T00:12:42;28.88;;;20.63;;
21233;SDS011;10774;42.178;26.578;2024-03-08T00:15:09;35.03;;;21.55;;
21233;SDS011;10774;42.178;26.578;2024-03-08T00:17:39;29.95;;;20.27;;
21233;SDS011;10774;42.178;26.578;2024-03-08T00:20:05;32.08;;;19.90;;
21233;SDS011;10774;42.178;26.578;2024-03-08T00:22:36;30.38;;;20.33;;
21233;SDS011;10774;42.178;26.578;2024-03-08T00:25:03;30.25;;;19.52;;
21233;SDS011;10774;42.178;26.578;2024-03-08T00:27:29;31.48;;;19.92;;
21233;SDS011;10774;42.178;26.578;2024-03-08T00:29:58;32.92;;;21.40;;
21233;SDS011;10774;42.178;26.578;2024-03-08T00:32:24;32.53;;;20.75;;
21233;SDS011;10774;42.178;26.578;2024-03-08T00:34:50;30.42;;;20.33;;
21233;SDS011;10774;42.178;26.578;2024-03-08T00:37:17;32.00;;;21.35;;
21233;SDS011;10774;42.178;26.578;2024-03-08T00:39:42;33.13;;;22.55;;
21233;SDS011;10774;42.178;26.578;2024-03-08T00:42:08;32.33;;;21.50;;
21233;SDS011;10774;42.178;26.578;2024-03-08T00:44:33;29.27;;;20.25;;
21233;SDS011;10774;42.178;26.578;2024-03-08T00:46:59;28.23;;;21.05;;
21233;SDS011;10774;42.178;26.578;2024-03-08T00:49:24;31.05;;;20.90;;
21233;SDS011;10774;42.178;26.578;2024-03-08T00:51:50;31.30;;;21.50;;
21233;SDS011;10774;42.178;26.578;2024-03-08T00:54:15;31.65;;;21.38;;
21233;SDS011;10774;42.178;26.578;2024-03-08T00:56:41;31.83;;;21.13;;
21233;SDS011;10774;42.178;26.578;2024-03-08T00:59:07;35.65;;;22.30;;
21233;SDS011;10774;42.178;26.578;2024-03-08T01:22:13;33.72;;;21.73;;
21233;SDS011;10774;42.178;26.578;2024-03-08T01:24:39;35.35;;;22.10;;
21233;SDS011;10774;42.178;26.578;2024-03-08T01:27:04;32.40;;;22.40;;
21233;SDS011;10774;42.178;26.578;2024-03-08T01:29:29;34.47;;;23.10;;
21233;SDS011;10774;42.178;26.578;2024-03-08T01:31:55;32.55;;;22.48;;
21233;SDS011;10774;42.178;26.578;2024-03-08T01:34:21;33.55;;;22.35;;
21233;SDS011;10774;42.178;26.578;2024-03-08T01:36:48;33.85;;;22.63;;
21233;SDS011;10774;42.178;26.578;2024-03-08T01:39:13;32.20;;;22.15;;
21233;SDS011;10774;42.178;26.578;2024-03-08T01:41:39;34.83;;;23.25;;
21233;SDS011;10774;42.178;26.578;2024-03-08T01:44:05;33.22;;;22.67;;
21233;SDS011;10774;42.178;26.578;2024-03-08T01:46:32;32.83;;;22.77;;
21233;SDS011;10774;42.178;26.578;2024-03-08T01:48:58;39.83;;;24.52;;
21233;SDS011;10774;42.178;26.578;2024-03-08T01:51:25;34.55;;;23.30;;
21233;SDS011;10774;42.178;26.578;2024-03-08T01:53:53;37.75;;;23.88;;
21233;SDS011;10774;42.178;26.578;2024-03-08T01:56:23;31.92;;;23.08;;
21233;SDS011;10774;42.178;26.578;2024-03-08T01:58:50;35.75;;;23.15;;
21233;SDS011;10774;42.178;26.578;2024-03-08T02:01:16;31.42;;;22.10;;
21233;SDS011;10774;42.178;26.578;2024-03-08T02:06:54;33.85;;;22.38;;
21233;SDS011;10774;42.178;26.578;2024-03-08T02:09:19;38.40;;;23.20;;
21233;SDS011;10774;42.178;26.578;2024-03-08T02:11:45;33.10;;;22.98;;
21233;SDS011;10774;42.178;26.578;2024-03-08T02:14:11;36.17;;;24.52;;
21233;SDS011;10774;42.178;26.578;2024-03-08T02:16:36;36.67;;;23.50;;
21233;SDS011;10774;42.178;26.578;2024-03-08T02:19:02;32.80;;;24.33;;
21233;SDS011;10774;42.178;26.578;2024-03-08T02:21:28;37.13;;;23.90;;
21233;SDS011;10774;42.178;26.578;2024-03-08T02:23:54;30.05;;;21.98;;
21233;SDS011;10774;42.178;26.578;2024-03-08T02:26:20;32.63;;;22.73;;
21233;SDS011;10774;42.178;26.578;2024-03-08T02:28:45;32.05;;;22.73;;
21233;SDS011;10774;42.178;26.578;2024-03-08T02:31:11;35.65;;;22.85;;
21233;SDS011;10774;42.178;26.578;2024-03-08T02:33:37;34.20;;;23.73;;
21233;SDS011;10774;42.178;26.578;2024-03-08T02:36:02;33.70;;;23.58;;
21233;SDS011;10774;42.178;26.578;2024-03-08T02:38:28;34.15;;;22.65;;
21233;SDS011;10774;42.178;26.578;2024-03-08T02:40:54;42.03;;;29.85;;
21233;SDS011;10774;42.178;26.578;2024-03-08T02:43:20;34.20;;;21.75;;
21233;SDS011;10774;42.178;26.578;2024-03-08T02:45:49;32.13;;;21.38;;
21233;SDS011;10774;42.178;26.578;2024-03-08T02:48:15;35.05;;;22.88;;
21233;SDS011;10774;42.178;26.578;2024-03-08T02:50:43;31.27;;;21.85;;
21233;SDS011;10774;42.178;26.578;2024-03-08T02:53:09;29.92;;;21.63;;
21233;SDS011;10774;42.178;26.578;2024-03-08T02:55:36;32.30;;;22.50;;
21233;SDS011;10774;42.178;26.578;2024-03-08T02:58:06;35.67;;;22.02;;
21233;SDS011;10774;42.178;26.578;2024-03-08T03:00:35;33.28;;;22.63;;
21233;SDS011;10774;42.178;26.578;2024-03-08T03:03:00;33.83;;;22.70;;
21233;SDS011;10774;42.178;26.578;2024-03-08T03:05:28;36.75;;;22.52;;
21233;SDS011;10774;42.178;26.578;2024-03-08T03:07:57;37.72;;;23.27;;
21233;SDS011;10774;42.178;26.578;2024-03-08T03:10:23;31.63;;;22.35;;
21233;SDS011;10774;42.178;26.578;2024-03-08T03:12:49;32.80;;;23.35;;
21233;SDS011;10774;42.178;26.578;2024-03-08T03:15:14;32.42;;;21.55;;
21233;SDS011;10774;42.178;26.578;2024-03-08T03:17:45;36.30;;;22.75;;
21233;SDS011;10774;42.178;26.578;2024-03-08T03:20:11;71.80;;;51.95;;
21233;SDS011;10774;42.178;26.578;2024-03-08T03:22:41;35.42;;;25.90;;
21233;SDS011;10774;42.178;26.578;2024-03-08T03:25:09;35.22;;;24.27;;
21233;SDS011;10774;42.178;26.578;2024-03-08T03:27:35;31.17;;;22.08;;
21233;SDS011;10774;42.178;26.578;2024-03-08T03:30:01;38.08;;;22.70;;
21233;SDS011;10774;42.178;26.578;2024-03-08T03:32:46;36.65;;;23.60;;
21233;SDS011;10774;42.178;26.578;2024-03-08T03:35:12;36.00;;;22.73;;
21233;SDS011;10774;42.178;26.578;2024-03-08T03:37:41;30.90;;;20.85;;
21233;SDS011;10774;42.178;26.578;2024-03-08T03:40:16;33.92;;;21.83;;
21233;SDS011;10774;42.178;26.578;2024-03-08T03:42:44;33.35;;;22.35;;
21233;SDS011;10774;42.178;26.578;2024-03-08T03:45:10;31.88;;;21.83;;
21233;SDS011;10774;42.178;26.578;2024-03-08T03:47:36;34.75;;;22.33;;
21233;SDS011;10774;42.178;26.578;2024-03-08T03:50:03;36.47;;;22.42;;
21233;SDS011;10774;42.178;26.578;2024-03-08T03:52:29;35.65;;;24.17;;
21233;SDS011;10774;42.178;26.578;2024-03-08T03:54:55;32.45;;;23.02;;
21233;SDS011;10774;42.178;26.578;2024-03-08T03:57:21;31.17;;;23.33;;
21233;SDS011;10774;42.178;26.578;2024-03-08T03:59:48;37.08;;;22.65;;
21233;SDS011;10774;42.178;26.578;2024-03-08T04:02:13;34.53;;;22.67;;
21233;SDS011;10774;42.178;26.578;2024-03-08T04:04:39;32.63;;;22.90;;
21233;SDS011;10774;42.178;26.578;2024-03-08T04:07:05;33.80;;;22.13;;
21233;SDS011;10774;42.178;26.578;2024-03-08T04:09:30;33.88;;;23.10;;
21233;SDS011;10774;42.178;26.578;2024-03-08T04:11:56;33.15;;;23.55;;
21233;SDS011;10774;42.178;26.578;2024-03-08T04:14:22;29.27;;;21.38;;
21233;SDS011;10774;42.178;26.578;2024-03-08T04:16:48;31.40;;;22.48;;
21233;SDS011;10774;42.178;26.578;2024-03-08T04:19:13;33.65;;;21.95;;
21233;SDS011;10774;42.178;26.578;2024-03-08T04:21:39;38.20;;;23.55;;
21233;SDS011;10774;42.178;26.578;2024-03-08T04:24:04;36.53;;;24.75;;
21233;SDS011;10774;42.178;26.578;2024-03-08T04:26:30;31.88;;;23.58;;
21233;SDS011;10774;42.178;26.578;2024-03-08T04:28:56;37.05;;;24.23;;
21233;SDS011;10774;42.178;26.578;2024-03-08T04:31:22;37.03;;;24.60;;
21233;SDS011;10774;42.178;26.578;2024-03-08T04:33:47;43.40;;;30.63;;
21233;SDS011;10774;42.178;26.578;2024-03-08T04:36:13;43.17;;;31.40;;
21233;SDS011;10774;42.178;26.578;2024-03-08T04:38:39;39.90;;;28.00;;
21233;SDS011;10774;42.178;26.578;2024-03-08T04:41:06;42.15;;;27.15;;
21233;SDS011;10774;42.178;26.578;2024-03-08T04:43:32;33.65;;;24.80;;
21233;SDS011;10774;42.178;26.578;2024-03-08T04:45:58;37.13;;;24.70;;
21233;SDS011;10774;42.178;26.578;2024-03-08T04:48:23;37.03;;;26.95;;
21233;SDS011;10774;42.178;26.578;2024-03-08T04:50:51;34.50;;;26.08;;
21233;SDS011;10774;42.178;26.578;2024-03-08T04:53:18;38.17;;;27.05;;
21233;SDS011;10774;42.178;26.578;2024-03-08T04:55:43;39.30;;;26.42;;
21233;SDS011;10774;42.178;26.578;2024-03-08T04:58:09;37.45;;;25.08;;
21233;SDS011;10774;42.178;26.578;2024-03-08T05:00:34;34.33;;;24.05;;
21233;SDS011;10774;42.178;26.578;2024-03-08T05:03:00;38.08;;;25.77;;
21233;SDS011;10774;42.178;26.578;2024-03-08T05:05:25;34.33;;;23.63;;
21233;SDS011;10774;42.178;26.578;2024-03-08T05:07:53;38.00;;;27.42;;
21233;SDS011;10774;42.178;26.578;2024-03-08T05:10:19;35.40;;;23.55;;
21233;SDS011;10774;42.178;26.578;2024-03-08T05:12:44;30.38;;;21.58;;
21233;SDS011;10774;42.178;26.578;2024-03-08T05:15:10;30.63;;;22.38;;
21233;SDS011;10774;42.178;26.578;2024-03-08T05:17:35;33.60;;;23.92;;
21233;SDS011;10774;42.178;26.578;2024-03-08T05:20:01;39.78;;;25.67;;
21233;SDS011;10774;42.178;26.578;2024-03-08T05:22:27;33.35;;;22.50;;
21233;SDS011;10774;42.178;26.578;2024-03-08T05:24:53;36.33;;;22.70;;
21233;SDS011;10774;42.178;26.578;2024-03-08T05:27:18;31.67;;;23.45;;
21233;SDS011;10774;42.178;26.578;2024-03-08T05:29:43;31.58;;;22.95;;
21233;SDS011;10774;42.178;26.578;2024-03-08T05:32:09;59.17;;;35.72;;
21233;SDS011;10774;42.178;26.578;2024-03-08T05:34:35;96.03;;;60.55;;
21233;SDS011;10774;42.178;26.578;2024-03-08T05:37:00;224.77;;;129.13;;
21233;SDS011;10774;42.178;26.578;2024-03-08T05:39:26;182.10;;;86.05;;
21233;SDS011;10774;42.178;26.578;2024-03-08T05:41:52;123.25;;;69.68;;
21233;SDS011;10774;42.178;26.578;2024-03-08T05:44:18;152.93;;;94.22;;
21233;SDS011;10774;42.178;26.578;2024-03-08T05:46:43;84.30;;;48.55;;
21233;SDS011;10774;42.178;26.578;2024-03-08T05:49:08;117.90;;;78.03;;
21233;SDS011;10774;42.178;26.578;2024-03-08T05:51:35;58.97;;;39.05;;
21233;SDS011;10774;42.178;26.578;2024-03-08T05:54:02;76.53;;;53.63;;
21233;SDS011;10774;42.178;26.578;2024-03-08T05:56:37;42.22;;;30.85;;
21233;SDS011;10774;42.178;26.578;2024-03-08T05:59:03;38.90;;;24.58;;
21233;SDS011;10774;42.178;26.578;2024-03-08T06:01:29;32.13;;;22.73;;
21233;SDS011;10774;42.178;26.578;2024-03-08T06:03:55;30.30;;;21.20;;
21233;SDS011;10774;42.178;26.578;2024-03-08T06:06:24;37.50;;;26.17;;
21233;SDS011;10774;42.178;26.578;2024-03-08T06:08:50;30.65;;;20.40;;
21233;SDS011;10774;42.178;26.578;2024-03-08T06:11:16;30.70;;;22.67;;
21233;SDS011;10774;42.178;26.578;2024-03-08T06:13:44;32.17;;;22.52;;
21233;SDS011;10774;42.178;26.578;2024-03-08T06:16:10;34.75;;;23.30;;
21233;SDS011;10774;42.178;26.578;2024-03-08T06:18:35;37.15;;;25.83;;
21233;SDS011;10774;42.178;26.578;2024-03-08T06:21:04;35.70;;;24.73;;
21233;SDS011;10774;42.178;26.578;2024-03-08T06:23:33;38.03;;;27.02;;
21233;SDS011;10774;42.178;26.578;2024-03-08T06:25:59;37.95;;;24.75;;
21233;SDS011;10774;42.178;26.578;2024-03-08T06:28:24;30.23;;;21.30;;
21233;SDS011;10774;42.178;26.578;2024-03-08T06:30:50;28.58;;;22.17;;
21233;SDS011;10774;42.178;26.578;2024-03-08T06:33:16;29.40;;;20.92;;
21233;SDS011;10774;42.178;26.578;2024-03-08T06:35:42;24.95;;;19.15;;
21233;SDS011;10774;42.178;26.578;2024-03-08T06:38:07;28.98;;;22.73;;
21233;SDS011;10774;42.178;26.578;2024-03-08T06:40:33;26.58;;;20.98;;
21233;SDS011;10774;42.178;26.578;2024-03-08T06:42:58;28.50;;;19.70;;
21233;SDS011;10774;42.178;26.578;2024-03-08T06:45:24;24.38;;;18.23;;
21233;SDS011;10774;42.178;26.578;2024-03-08T06:47:50;23.67;;;17.65;;
21233;SDS011;10774;42.178;26.578;2024-03-08T06:50:16;28.00;;;21.17;;
21233;SDS011;10774;42.178;26.578;2024-03-08T06:52:42;24.30;;;18.88;;
21233;SDS011;10774;42.178;26.578;2024-03-08T06:55:09;24.98;;;18.73;;
21233;SDS011;10774;42.178;26.578;2024-03-08T06:57:38;24.92;;;19.70;;
21233;SDS011;10774;42.178;26.578;2024-03-08T07:00:06;28.13;;;20.65;;
21233;SDS011;10774;42.178;26.578;2024-03-08T07:02:34;27.40;;;20.83;;
21233;SDS011;10774;42.178;26.578;2024-03-08T07:05:00;21.38;;;17.42;;
21233;SDS011;10774;42.178;26.578;2024-03-08T07:07:26;22.70;;;16.67;;
21233;SDS011;10774;42.178;26.578;2024-03-08T07:09:52;22.70;;;16.67;;
21233;SDS011;10774;42.178;26.578;2024-03-08T07:12:17;21.92;;;16.80;;
21233;SDS011;10774;42.178;26.578;2024-03-08T07:14:43;22.75;;;16.45;;
21233;SDS011;10774;42.178;26.578;2024-03-08T07:17:10;22.83;;;16.83;;
21233;SDS011;10774;42.178;26.578;2024-03-08T07:19:36;21.83;;;17.05;;
21233;SDS011;10774;42.178;26.578;2024-03-08T07:22:03;25.33;;;18.65;;
21233;SDS011;10774;42.178;26.578;2024-03-08T07:24:29;29.70;;;21.35;;
21233;SDS011;10774;42.178;26.578;2024-03-08T07:27:06;34.45;;;26.23;;
21233;SDS011;10774;42.178;26.578;2024-03-08T07:29:32;25.02;;;20.13;;
21233;SDS011;10774;42.178;26.578;2024-03-08T07:31:58;25.50;;;20.52;;
21233;SDS011;10774;42.178;26.578;2024-03-08T07:34:42;28.25;;;19.10;;
21233;SDS011;10774;42.178;26.578;2024-03-08T07:37:07;24.63;;;17.08;;
21233;SDS011;10774;42.178;26.578;2024-03-08T07:39:36;18.88;;;15.75;;
21233;SDS011;10774;42.178;26.578;2024-03-08T07:42:02;24.02;;;17.92;;
21233;SDS011;10774;42.178;26.578;2024-03-08T07:44:28;19.92;;;16.35;;
21233;SDS011;10774;42.178;26.578;2024-03-08T07:46:54;18.98;;;13.73;;
21233;SDS011;10774;42.178;26.578;2024-03-08T07:49:20;17.38;;;14.18;;
21233;SDS011;10774;42.178;26.578;2024-03-08T07:51:45;21.10;;;15.90;;
21233;SDS011;10774;42.178;26.578;2024-03-08T07:54:14;19.23;;;14.48;;
21233;SDS011;10774;42.178;26.578;2024-03-08T07:56:39;29.70;;;20.23;;
21233;SDS011;10774;42.178;26.578;2024-03-08T07:59:05;21.60;;;15.10;;
21233;SDS011;10774;42.178;26.578;2024-03-08T08:01:30;19.85;;;15.52;;
21233;SDS011;10774;42.178;26.578;2024-03-08T08:03:56;22.30;;;16.88;;
21233;SDS011;10774;42.178;26.578;2024-03-08T08:06:22;27.58;;;19.80;;
21233;SDS011;10774;42.178;26.578;2024-03-08T08:08:53;33.67;;;22.38;;
21233;SDS011;10774;42.178;26.578;2024-03-08T08:11:19;22.70;;;16.77;;
21233;SDS011;10774;42.178;26.578;2024-03-08T08:13:45;22.17;;;16.77;;
21233;SDS011;10774;42.178;26.578;2024-03-08T08:16:11;23.33;;;16.42;;
21233;SDS011;10774;42.178;26.578;2024-03-08T08:18:38;25.83;;;19.23;;
21233;SDS011;10774;42.178;26.578;2024-03-08T08:21:04;31.65;;;25.13;;
21233;SDS011;10774;42.178;26.578;2024-03-08T08:23:31;31.50;;;26.02;;
21233;SDS011;10774;42.178;26.578;2024-03-08T08:25:57;35.67;;;25.33;;
21233;SDS011;10774;42.178;26.578;2024-03-08T08:28:23;21.25;;;16.70;;
21233;SDS011;10774;42.178;26.578;2024-03-08T08:30:49;30.80;;;21.38;;
21233;SDS011;10774;42.178;26.578;2024-03-08T08:33:15;33.72;;;22.67;;
21233;SDS011;10774;42.178;26.578;2024-03-08T08:35:41;27.23;;;20.73;;
21233;SDS011;10774;42.178;26.578;2024-03-08T08:38:07;27.63;;;20.13;;
21233;SDS011;10774;42.178;26.578;2024-03-08T08:40:35;23.55;;;16.95;;
21233;SDS011;10774;42.178;26.578;2024-03-08T08:43:01;23.17;;;17.45;;
21233;SDS011;10774;42.178;26.578;2024-03-08T08:45:29;23.20;;;15.20;;
21233;SDS011;10774;42.178;26.578;2024-03-08T08:47:58;22.00;;;15.55;;
21233;SDS011;10774;42.178;26.578;2024-03-08T08:50:26;20.42;;;14.32;;
21233;SDS011;10774;42.178;26.578;2024-03-08T08:52:54;17.75;;;13.73;;
21233;SDS011;10774;42.178;26.578;2024-03-08T08:55:20;20.00;;;15.07;;
21233;SDS011;10774;42.178;26.578;2024-03-08T08:57:46;22.05;;;13.90;;
21233;SDS011;10774;42.178;26.578;2024-03-08T09:00:13;23.05;;;15.32;;
21233;SDS011;10774;42.178;26.578;2024-03-08T09:02:43;24.08;;;15.80;;
21233;SDS011;10774;42.178;26.578;2024-03-08T09:05:08;29.77;;;19.45;;
21233;SDS011;10774;42.178;26.578;2024-03-08T09:07:34;21.13;;;15.20;;
21233;SDS011;10774;42.178;26.578;2024-03-08T09:09:59;24.25;;;16.40;;
21233;SDS011;10774;42.178;26.578;2024-03-08T09:12:25;23.02;;;16.85;;
21233;SDS011;10774;42.178;26.578;2024-03-08T09:14:51;21.98;;;13.70;;
21233;SDS011;10774;42.178;26.578;2024-03-08T09:17:17;17.77;;;12.27;;
21233;SDS011;10774;42.178;26.578;2024-03-08T09:19:45;19.40;;;13.40;;
21233;SDS011;10774;42.178;26.578;2024-03-08T09:22:14;26.77;;;16.67;;
21233;SDS011;10774;42.178;26.578;2024-03-08T09:24:39;22.90;;;16.17;;
21233;SDS011;10774;42.178;26.578;2024-03-08T09:27:05;14.68;;;12.02;;
21233;SDS011;10774;42.178;26.578;2024-03-08T09:29:31;21.88;;;14.68;;
21233;SDS011;10774;42.178;26.578;2024-03-08T09:31:56;20.38;;;15.20;;
21233;SDS011;10774;42.178;26.578;2024-03-08T09:34:22;23.08;;;16.80;;
21233;SDS011;10774;42.178;26.578;2024-03-08T09:36:47;18.00;;;13.90;;
21233;SDS011;10774;42.178;26.578;2024-03-08T09:39:13;15.93;;;12.82;;
21233;SDS011;10774;42.178;26.578;2024-03-08T09:41:44;18.67;;;14.20;;
21233;SDS011;10774;42.178;26.578;2024-03-08T09:44:13;17.20;;;13.15;;
21233;SDS011;10774;42.178;26.578;2024-03-08T09:46:39;17.58;;;12.70;;
21233;SDS011;10774;42.178;26.578;2024-03-08T09:49:05;16.63;;;12.60;;
21233;SDS011;10774;42.178;26.578;2024-03-08T09:51:31;18.75;;;13.38;;
21233;SDS011;10774;42.178;26.578;2024-03-08T09:54:00;16.55;;;12.70;;
21233;SDS011;10774;42.178;26.578;2024-03-08T09:56:26;16.98;;;12.35;;
21233;SDS011;10774;42.178;26.578;2024-03-08T09:58:52;19.25;;;13.15;;
21233;SDS011;10774;42.178;26.578;2024-03-08T10:01:36;22.23;;;14.57;;
21233;SDS011;10774;42.178;26.578;2024-03-08T10:04:04;23.50;;;16.67;;
21233;SDS011;10774;42.178;26.578;2024-03-08T10:06:30;24.08;;;16.13;;
21233;SDS011;10774;42.178;26.578;2024-03-08T10:08:56;25.77;;;19.73;;
21233;SDS011;10774;42.178;26.578;2024-03-08T10:11:22;22.25;;;17.50;;
21233;SDS011;10774;42.178;26.578;2024-03-08T10:13:48;21.77;;;15.65;;
21233;SDS011;10774;42.178;26.578;2024-03-08T10:16:15;21.83;;;16.00;;
21233;SDS011;10774;42.178;26.578;2024-03-08T10:18:42;19.65;;;14.52;;
21233;SDS011;10774;42.178;26.578;2024-03-08T10:21:08;21.20;;;12.93;;
21233;SDS011;10774;42.178;26.578;2024-03-08T10:23:40;22.10;;;14.10;;
21233;SDS011;10774;42.178;26.578;2024-03-08T10:26:15;21.73;;;14.88;;
21233;SDS011;10774;42.178;26.578;2024-03-08T10:28:42;22.17;;;16.00;;
21233;SDS011;10774;42.178;26.578;2024-03-08T10:31:08;21.98;;;15.15;;
21233;SDS011;10774;42.178;26.578;2024-03-08T10:33:34;32.55;;;23.83;;
21233;SDS011;10774;42.178;26.578;2024-03-08T10:36:00;31.23;;;25.17;;
21233;SDS011;10774;42.178;26.578;2024-03-08T10:38:26;18.05;;;12.10;;
21233;SDS011;10774;42.178;26.578;2024-03-08T10:40:51;37.22;;;23.38;;
21233;SDS011;10774;42.178;26.578;2024-03-08T10:43:22;39.35;;;24.60;;
21233;SDS011;10774;42.178;26.578;2024-03-08T10:45:50;34.30;;;23.38;;
21233;SDS011;10774;42.178;26.578;2024-03-08T10:48:30;55.30;;;32.85;;
21233;SDS011;10774;42.178;26.578;2024-03-08T10:50:57;35.03;;;23.02;;
21233;SDS011;10774;42.178;26.578;2024-03-08T10:53:26;38.47;;;25.20;;
21233;SDS011;10774;42.178;26.578;2024-03-08T10:55:54;42.60;;;32.13;;
21233;SDS011;10774;42.178;26.578;2024-03-08T10:58:21;34.72;;;23.80;;
21233;SDS011;10774;42.178;26.578;2024-03-08T11:00:51;35.22;;;26.77;;
21233;SDS011;10774;42.178;26.578;2024-03-08T11:04:01;19.98;;;15.50;;
21233;SDS011;10774;42.178;26.578;2024-03-08T11:08:55;20.38;;;15.60;;
21233;SDS011;10774;42.178;26.578;2024-03-08T11:11:25;26.98;;;19.42;;
21233;SDS011;10774;42.178;26.578;2024-03-08T11:13:55;21.65;;;15.32;;
21233;SDS011;10774;42.178;26.578;2024-03-08T11:18:50;25.02;;;17.70;;
21233;SDS011;10774;42.178;26.578;2024-03-08T11:21:18;25.55;;;15.93;;
21233;SDS011;10774;42.178;26.578;2024-03-08T11:23:43;20.60;;;15.48;;
21233;SDS011;10774;42.178;26.578;2024-03-08T11:26:28;18.58;;;13.80;;
21233;SDS011;10774;42.178;26.578;2024-03-08T11:29:11;14.65;;;11.20;;
21233;SDS011;10774;42.178;26.578;2024-03-08T11:34:42;15.52;;;11.35;;
21233;SDS011;10774;42.178;26.578;2024-03-08T11:37:10;19.33;;;13.75;;
21233;SDS011;10774;42.178;26.578;2024-03-08T11:39:50;20.35;;;14.20;;
21233;SDS011;10774;42.178;26.578;2024-03-08T11:42:17;21.25;;;15.02;;
21233;SDS011;10774;42.178;26.578;2024-03-08T11:44:47;23.90;;;16.48;;
21233;SDS011;10774;42.178;26.578;2024-03-08T11:47:23;21.63;;;14.38;;
21233;SDS011;10774;42.178;26.578;2024-03-08T11:49:48;26.20;;;17.27;;
21233;SDS011;10774;42.178;26.578;2024-03-08T11:52:14;17.80;;;11.52;;
21233;SDS011;10774;42.178;26.578;2024-03-08T11:54:41;15.60;;;10.43;;
21233;SDS011;10774;42.178;26.578;2024-03-08T11:57:14;22.25;;;15.05;;
21233;SDS011;10774;42.178;26.578;2024-03-08T11:59:39;16.77;;;12.35;;
21233;SDS011;10774;42.178;26.578;2024-03-08T12:02:05;24.48;;;15.40;;
21233;SDS011;10774;42.178;26.578;2024-03-08T12:04:31;19.80;;;13.30;;
21233;SDS011;10774;42.178;26.578;2024-03-08T12:07:00;20.05;;;13.45;;
21233;SDS011;10774;42.178;26.578;2024-03-08T12:09:34;21.50;;;13.77;;
21233;SDS011;10774;42.178;26.578;2024-03-08T12:12:01;16.48;;;11.40;;
21233;SDS011;10774;42.178;26.578;2024-03-08T12:14:29;21.55;;;12.23;;
21233;SDS011;10774;42.178;26.578;2024-03-08T12:16:55;16.40;;;11.30;;
21233;SDS011;10774;42.178;26.578;2024-03-08T12:19:20;14.57;;;10.65;;
21233;SDS011;10774;42.178;26.578;2024-03-08T12:21:46;20.23;;;13.57;;
21233;SDS011;10774;42.178;26.578;2024-03-08T12:24:23;18.08;;;12.13;;
21233;SDS011;10774;42.178;26.578;2024-03-08T12:26:48;20.20;;;13.30;;
21233;SDS011;10774;42.178;26.578;2024-03-08T12:34:22;33.00;;;22.25;;
21233;SDS011;10774;42.178;26.578;2024-03-08T12:36:48;44.75;;;28.10;;
21233;SDS011;10774;42.178;26.578;2024-03-08T12:39:16;28.88;;;17.50;;
21233;SDS011;10774;42.178;26.578;2024-03-08T12:41:43;37.83;;;23.15;;
21233;SDS011;10774;42.178;26.578;2024-03-08T12:44:08;18.83;;;13.65;;
21233;SDS011;10774;42.178;26.578;2024-03-08T12:46:39;18.25;;;13.52;;
21233;SDS011;10774;42.178;26.578;2024-03-08T12:49:10;12.48;;;9.75;;
21233;SDS011;10774;42.178;26.578;2024-03-08T12:51:37;16.27;;;11.27;;
21233;SDS011;10774;42.178;26.578;2024-03-08T12:54:05;25.73;;;15.07;;
21233;SDS011;10774;42.178;26.578;2024-03-08T12:56:32;39.47;;;23.92;;
21233;SDS011;10774;42.178;26.578;2024-03-08T12:58:59;16.00;;;11.00;;
21233;SDS011;10774;42.178;26.578;2024-03-08T13:01:25;17.67;;;12.40;;
21233;SDS011;10774;42.178;26.578;2024-03-08T13:03:52;20.92;;;14.90;;
21233;SDS011;10774;42.178;26.578;2024-03-08T13:06:18;13.65;;;11.18;;
21233;SDS011;10774;42.178;26.578;2024-03-08T13:08:46;91.30;;;38.00;;
21233;SDS011;10774;42.178;26.578;2024-03-08T13:11:13;81.57;;;37.85;;
21233;SDS011;10774;42.178;26.578;2024-03-08T13:13:42;19.17;;;13.70;;
21233;SDS011;10774;42.178;26.578;2024-03-08T13:16:08;13.80;;;11.23;;
21233;SDS011;10774;42.178;26.578;2024-03-08T13:18:35;17.80;;;12.43;;
21233;SDS011;10774;42.178;26.578;2024-03-08T13:21:01;16.55;;;11.45;;
21233;SDS011;10774;42.178;26.578;2024-03-08T13:23:34;20.33;;;12.48;;
21233;SDS011;10774;42.178;26.578;2024-03-08T13:26:04;16.52;;;12.52;;
21233;SDS011;10774;42.178;26.578;2024-03-08T13:28:30;20.92;;;14.18;;
21233;SDS011;10774;42.178;26.578;2024-03-08T13:31:01;26.45;;;18.45;;
21233;SDS011;10774;42.178;26.578;2024-03-08T13:33:28;22.42;;;16.42;;
21233;SDS011;10774;42.178;26.578;2024-03-08T13:35:53;25.10;;;15.95;;
21233;SDS011;10774;42.178;26.578;2024-03-08T13:38:18;24.80;;;18.00;;
21233;SDS011;10774;42.178;26.578;2024-03-08T13:40:46;29.33;;;20.92;;
21233;SDS011;10774;42.178;26.578;2024-03-08T13:43:16;28.42;;;18.02;;
21233;SDS011;10774;42.178;26.578;2024-03-08T13:45:42;34.30;;;22.60;;
21233;SDS011;10774;42.178;26.578;2024-03-08T13:48:08;25.55;;;18.23;;
21233;SDS011;10774;42.178;26.578;2024-03-08T13:50:37;25.75;;;19.45;;
21233;SDS011;10774;42.178;26.578;2024-03-08T13:53:03;27.25;;;22.63;;
21233;SDS011;10774;42.178;26.578;2024-03-08T13:55:29;20.23;;;16.45;;
21233;SDS011;10774;42.178;26.578;2024-03-08T13:57:55;20.88;;;16.98;;
21233;SDS011;10774;42.178;26.578;2024-03-08T14:00:22;21.27;;;16.05;;
21233;SDS011;10774;42.178;26.578;2024-03-08T14:02:50;16.38;;;13.23;;
21233;SDS011;10774;42.178;26.578;2024-03-08T14:05:16;61.80;;;36.08;;
21233;SDS011;10774;42.178;26.578;2024-03-08T14:07:42;48.92;;;28.42;;
21233;SDS011;10774;42.178;26.578;2024-03-08T14:10:11;51.58;;;30.63;;
21233;SDS011;10774;42.178;26.578;2024-03-08T14:12:37;32.08;;;20.15;;
21233;SDS011;10774;42.178;26.578;2024-03-08T14:15:03;36.38;;;24.02;;
21233;SDS011;10774;42.178;26.578;2024-03-08T14:17:31;45.53;;;26.88;;
21233;SDS011;10774;42.178;26.578;2024-03-08T14:19:57;58.58;;;36.75;;
21233;SDS011;10774;42.178;26.578;2024-03-08T14:22:22;31.88;;;23.70;;
21233;SDS011;10774;42.178;26.578;2024-03-08T14:24:48;25.02;;;18.60;;
21233;SDS011;10774;42.178;26.578;2024-03-08T14:27:14;28.15;;;20.90;;
21233;SDS011;10774;42.178;26.578;2024-03-08T14:29:42;20.23;;;15.57;;
21233;SDS011;10774;42.178;26.578;2024-03-08T14:32:08;20.23;;;15.13;;
21233;SDS011;10774;42.178;26.578;2024-03-08T14:34:35;20.02;;;15.48;;
21233;SDS011;10774;42.178;26.578;2024-03-08T14:37:00;21.60;;;16.67;;
21233;SDS011;10774;42.178;26.578;2024-03-08T14:39:30;21.73;;;16.35;;
21233;SDS011;10774;42.178;26.578;2024-03-08T14:41:55;27.25;;;18.77;;
21233;SDS011;10774;42.178;26.578;2024-03-08T14:44:23;19.23;;;14.68;;